sensor_id;sensor_type;location;lat;lon;timestamp;P1;durP1;ratioP1;P2;durP2;ratioP2
38399;SDS011;24180;42.676;23.320;2022-12-18T00:02:04;5.67;;;5.07;;
38399;SDS011;24180;42.676;23.320;2022-12-18T00:04:30;7.23;;;6.00;;
38399;SDS011;24180;42.676;23.320;2022-12-18T00:06:55;7.90;;;6.67;;
38399;SDS011;24180;42.676;23.320;2022-12-18T00:09:21;10.70;;;8.47;;
38399;SDS011;24180;42.676;23.320;2022-12-18T00:11:46;7.57;;;6.77;;
38399;SDS011;24180;42.676;23.320;2022-12-18T00:14:12;7.43;;;6.63;;
38399;SDS011;24180;42.676;23.320;2022-12-18T00:16:38;6.87;;;5.70;;
38399;SDS011;24180;42.676;23.320;2022-12-18T00:19:05;7.70;;;6.90;;
38399;SDS011;24180;42.676;23.320;2022-12-18T00:21:31;7.30;;;6.53;;
38399;SDS011;24180;42.676;23.320;2022-12-18T00:23:58;7.70;;;5.93;;
38399;SDS011;24180;42.676;23.320;2022-12-18T00:26:31;9.17;;;6.70;;
38399;SDS011;24180;42.676;23.320;2022-12-18T00:28:58;7.67;;;6.87;;
38399;SDS011;24180;42.676;23.320;2022-12-18T00:31:25;8.80;;;7.13;;
38399;SDS011;24180;42.676;23.320;2022-12-18T00:33:53;7.87;;;5.03;;
38399;SDS011;24180;42.676;23.320;2022-12-18T00:36:21;6.60;;;5.30;;
38399;SDS011;24180;42.676;23.320;2022-12-18T00:38:49;9.67;;;6.70;;
38399;SDS011;24180;42.676;23.320;2022-12-18T00:41:15;8.67;;;7.17;;
38399;SDS011;24180;42.676;23.320;2022-12-18T00:44:01;10.93;;;8.70;;
38399;SDS011;24180;42.676;23.320;2022-12-18T00:46:27;7.70;;;6.47;;
38399;SDS011;24180;42.676;23.320;2022-12-18T00:48:52;7.57;;;6.57;;
38399;SDS011;24180;42.676;23.320;2022-12-18T00:51:18;9.00;;;8.07;;
38399;SDS011;24180;42.676;23.320;2022-12-18T00:53:43;9.73;;;8.63;;
38399;SDS011;24180;42.676;23.320;2022-12-18T00:56:09;9.47;;;8.10;;
38399;SDS011;24180;42.676;23.320;2022-12-18T00:58:34;11.70;;;8.80;;
38399;SDS011;24180;42.676;23.320;2022-12-18T01:00:59;9.40;;;8.13;;
38399;SDS011;24180;42.676;23.320;2022-12-18T01:03:25;9.47;;;8.03;;
38399;SDS011;24180;42.676;23.320;2022-12-18T01:05:50;8.87;;;7.23;;
38399;SDS011;24180;42.676;23.320;2022-12-18T01:08:16;8.10;;;6.37;;
38399;SDS011;24180;42.676;23.320;2022-12-18T01:10:41;8.90;;;8.00;;
38399;SDS011;24180;42.676;23.320;2022-12-18T01:13:06;11.40;;;8.67;;
38399;SDS011;24180;42.676;23.320;2022-12-18T01:15:32;7.63;;;6.53;;
38399;SDS011;24180;42.676;23.320;2022-12-18T01:17:57;7.77;;;6.07;;
38399;SDS011;24180;42.676;23.320;2022-12-18T01:20:23;7.80;;;6.03;;
38399;SDS011;24180;42.676;23.320;2022-12-18T01:22:48;7.73;;;5.97;;
38399;SDS011;24180;42.676;23.320;2022-12-18T01:25:13;10.07;;;7.50;;
38399;SDS011;24180;42.676;23.320;2022-12-18T01:27:39;7.67;;;6.70;;
38399;SDS011;24180;42.676;23.320;2022-12-18T01:30:04;9.57;;;8.47;;
38399;SDS011;24180;42.676;23.320;2022-12-18T01:32:31;8.80;;;7.47;;
38399;SDS011;24180;42.676;23.320;2022-12-18T01:34:56;10.73;;;8.53;;
38399;SDS011;24180;42.676;23.320;2022-12-18T01:37:22;10.53;;;8.90;;
38399;SDS011;24180;42.676;23.320;2022-12-18T01:39:47;12.33;;;9.40;;
38399;SDS011;24180;42.676;23.320;2022-12-18T01:42:14;10.50;;;8.90;;
38399;SDS011;24180;42.676;23.320;2022-12-18T01:47:25;8.27;;;5.83;;
38399;SDS011;24180;42.676;23.320;2022-12-18T01:49:52;10.90;;;8.93;;
38399;SDS011;24180;42.676;23.320;2022-12-18T01:52:18;7.87;;;6.87;;
38399;SDS011;24180;42.676;23.320;2022-12-18T01:54:46;6.60;;;5.17;;
38399;SDS011;24180;42.676;23.320;2022-12-18T01:57:13;9.43;;;7.67;;
38399;SDS011;24180;42.676;23.320;2022-12-18T01:59:39;8.93;;;6.83;;
38399;SDS011;24180;42.676;23.320;2022-12-18T02:02:07;9.10;;;6.33;;
38399;SDS011;24180;42.676;23.320;2022-12-18T02:04:33;10.67;;;7.20;;
38399;SDS011;24180;42.676;23.320;2022-12-18T02:10:33;9.73;;;7.87;;
38399;SDS011;24180;42.676;23.320;2022-12-18T02:13:07;9.10;;;8.20;;
38399;SDS011;24180;42.676;23.320;2022-12-18T02:18:24;11.10;;;8.57;;
38399;SDS011;24180;42.676;23.320;2022-12-18T02:20:55;9.87;;;8.10;;
38399;SDS011;24180;42.676;23.320;2022-12-18T02:28:42;11.73;;;8.37;;
38399;SDS011;24180;42.676;23.320;2022-12-18T02:31:13;10.40;;;7.97;;
38399;SDS011;24180;42.676;23.320;2022-12-18T02:33:46;9.57;;;8.30;;
38399;SDS011;24180;42.676;23.320;2022-12-18T02:36:14;7.37;;;6.20;;
38399;SDS011;24180;42.676;23.320;2022-12-18T02:38:42;8.10;;;7.27;;
38399;SDS011;24180;42.676;23.320;2022-12-18T02:41:09;9.10;;;7.07;;
38399;SDS011;24180;42.676;23.320;2022-12-18T02:43:36;9.40;;;7.40;;
38399;SDS011;24180;42.676;23.320;2022-12-18T02:46:20;9.23;;;7.40;;
38399;SDS011;24180;42.676;23.320;2022-12-18T02:49:05;9.33;;;7.40;;
38399;SDS011;24180;42.676;23.320;2022-12-18T02:52:01;8.57;;;7.07;;
38399;SDS011;24180;42.676;23.320;2022-12-18T02:57:42;7.90;;;6.70;;
38399;SDS011;24180;42.676;23.320;2022-12-18T03:00:20;8.10;;;6.17;;
38399;SDS011;24180;42.676;23.320;2022-12-18T03:08:18;7.33;;;6.50;;
38399;SDS011;24180;42.676;23.320;2022-12-18T03:10:51;7.60;;;5.47;;
38399;SDS011;24180;42.676;23.320;2022-12-18T03:13:26;9.80;;;8.17;;
38399;SDS011;24180;42.676;23.320;2022-12-18T03:15:56;10.03;;;7.57;;
38399;SDS011;24180;42.676;23.320;2022-12-18T03:18:25;11.43;;;8.07;;
38399;SDS011;24180;42.676;23.320;2022-12-18T03:20:58;10.07;;;7.03;;
38399;SDS011;24180;42.676;23.320;2022-12-18T03:23:29;5.03;;;4.53;;
38399;SDS011;24180;42.676;23.320;2022-12-18T03:26:02;8.37;;;7.37;;
38399;SDS011;24180;42.676;23.320;2022-12-18T03:28:32;8.00;;;6.37;;
38399;SDS011;24180;42.676;23.320;2022-12-18T03:31:02;9.57;;;7.83;;
38399;SDS011;24180;42.676;23.320;2022-12-18T03:33:31;9.30;;;7.37;;
38399;SDS011;24180;42.676;23.320;2022-12-18T03:36:03;10.03;;;7.77;;
38399;SDS011;24180;42.676;23.320;2022-12-18T03:38:29;9.77;;;7.33;;
38399;SDS011;24180;42.676;23.320;2022-12-18T03:43:45;6.47;;;5.87;;
38399;SDS011;24180;42.676;23.320;2022-12-18T03:46:25;6.07;;;5.47;;
38399;SDS011;24180;42.676;23.320;2022-12-18T03:49:04;8.27;;;6.53;;
38399;SDS011;24180;42.676;23.320;2022-12-18T03:54:06;13.17;;;7.23;;
38399;SDS011;24180;42.676;23.320;2022-12-18T03:56:36;10.20;;;7.57;;
38399;SDS011;24180;42.676;23.320;2022-12-18T03:59:05;9.00;;;6.57;;
38399;SDS011;24180;42.676;23.320;2022-12-18T04:01:33;8.67;;;7.27;;
38399;SDS011;24180;42.676;23.320;2022-12-18T04:04:02;8.67;;;7.10;;
38399;SDS011;24180;42.676;23.320;2022-12-18T04:06:29;8.10;;;7.30;;
38399;SDS011;24180;42.676;23.320;2022-12-18T04:08:57;5.87;;;5.23;;
38399;SDS011;24180;42.676;23.320;2022-12-18T04:11:23;8.67;;;7.40;;
38399;SDS011;24180;42.676;23.320;2022-12-18T04:13:49;10.37;;;8.50;;
38399;SDS011;24180;42.676;23.320;2022-12-18T04:16:14;10.80;;;8.30;;
38399;SDS011;24180;42.676;23.320;2022-12-18T04:18:40;7.63;;;6.17;;
38399;SDS011;24180;42.676;23.320;2022-12-18T04:21:05;8.23;;;6.90;;
38399;SDS011;24180;42.676;23.320;2022-12-18T04:23:30;8.27;;;6.77;;
38399;SDS011;24180;42.676;23.320;2022-12-18T04:25:56;10.20;;;6.97;;
38399;SDS011;24180;42.676;23.320;2022-12-18T04:28:21;11.57;;;8.30;;
38399;SDS011;24180;42.676;23.320;2022-12-18T04:30:47;10.07;;;8.07;;
38399;SDS011;24180;42.676;23.320;2022-12-18T04:33:14;9.23;;;7.90;;
38399;SDS011;24180;42.676;23.320;2022-12-18T04:35:41;10.20;;;7.13;;
38399;SDS011;24180;42.676;23.320;2022-12-18T04:38:07;9.50;;;6.47;;
38399;SDS011;24180;42.676;23.320;2022-12-18T04:40:36;11.17;;;6.97;;
38399;SDS011;24180;42.676;23.320;2022-12-18T04:43:02;9.47;;;7.00;;
38399;SDS011;24180;42.676;23.320;2022-12-18T04:45:29;9.67;;;7.83;;
38399;SDS011;24180;42.676;23.320;2022-12-18T04:47:57;7.77;;;6.53;;
38399;SDS011;24180;42.676;23.320;2022-12-18T04:50:23;13.57;;;9.80;;
38399;SDS011;24180;42.676;23.320;2022-12-18T04:52:48;10.70;;;8.30;;
38399;SDS011;24180;42.676;23.320;2022-12-18T04:55:13;12.13;;;9.63;;
38399;SDS011;24180;42.676;23.320;2022-12-18T04:57:39;11.13;;;8.23;;
38399;SDS011;24180;42.676;23.320;2022-12-18T05:00:05;8.87;;;7.17;;
38399;SDS011;24180;42.676;23.320;2022-12-18T05:02:31;12.80;;;8.53;;
38399;SDS011;24180;42.676;23.320;2022-12-18T05:04:56;10.30;;;7.97;;
38399;SDS011;24180;42.676;23.320;2022-12-18T05:07:22;12.30;;;8.40;;
38399;SDS011;24180;42.676;23.320;2022-12-18T05:09:47;11.03;;;7.90;;
38399;SDS011;24180;42.676;23.320;2022-12-18T05:12:13;12.03;;;8.23;;
38399;SDS011;24180;42.676;23.320;2022-12-18T05:14:38;13.83;;;8.90;;
38399;SDS011;24180;42.676;23.320;2022-12-18T05:17:03;10.07;;;7.67;;
38399;SDS011;24180;42.676;23.320;2022-12-18T05:19:29;11.90;;;8.57;;
38399;SDS011;24180;42.676;23.320;2022-12-18T05:21:54;13.90;;;9.93;;
38399;SDS011;24180;42.676;23.320;2022-12-18T05:24:20;15.43;;;10.97;;
38399;SDS011;24180;42.676;23.320;2022-12-18T05:26:45;12.03;;;8.83;;
38399;SDS011;24180;42.676;23.320;2022-12-18T05:29:11;10.53;;;7.27;;
38399;SDS011;24180;42.676;23.320;2022-12-18T05:31:37;11.40;;;9.30;;
38399;SDS011;24180;42.676;23.320;2022-12-18T05:34:03;12.27;;;9.00;;
38399;SDS011;24180;42.676;23.320;2022-12-18T05:36:29;13.67;;;9.60;;
38399;SDS011;24180;42.676;23.320;2022-12-18T05:38:54;8.43;;;6.50;;
38399;SDS011;24180;42.676;23.320;2022-12-18T05:41:20;9.67;;;7.20;;
38399;SDS011;24180;42.676;23.320;2022-12-18T05:43:45;14.23;;;10.27;;
38399;SDS011;24180;42.676;23.320;2022-12-18T05:46:12;13.27;;;9.63;;
38399;SDS011;24180;42.676;23.320;2022-12-18T05:48:39;13.50;;;9.80;;
38399;SDS011;24180;42.676;23.320;2022-12-18T05:51:09;10.23;;;7.90;;
38399;SDS011;24180;42.676;23.320;2022-12-18T05:53:36;14.90;;;10.90;;
38399;SDS011;24180;42.676;23.320;2022-12-18T05:56:03;13.80;;;8.17;;
38399;SDS011;24180;42.676;23.320;2022-12-18T05:58:31;11.83;;;9.47;;
38399;SDS011;24180;42.676;23.320;2022-12-18T06:00:57;8.03;;;5.97;;
38399;SDS011;24180;42.676;23.320;2022-12-18T06:03:23;16.27;;;11.53;;
38399;SDS011;24180;42.676;23.320;2022-12-18T06:05:48;11.93;;;7.97;;
38399;SDS011;24180;42.676;23.320;2022-12-18T06:08:14;13.87;;;9.90;;
38399;SDS011;24180;42.676;23.320;2022-12-18T06:10:40;16.33;;;11.00;;
38399;SDS011;24180;42.676;23.320;2022-12-18T06:13:06;19.90;;;12.50;;
38399;SDS011;24180;42.676;23.320;2022-12-18T06:15:32;18.93;;;13.70;;
38399;SDS011;24180;42.676;23.320;2022-12-18T06:17:57;18.93;;;12.03;;
38399;SDS011;24180;42.676;23.320;2022-12-18T06:20:23;16.57;;;12.17;;
38399;SDS011;24180;42.676;23.320;2022-12-18T06:22:49;16.40;;;12.00;;
38399;SDS011;24180;42.676;23.320;2022-12-18T06:25:14;18.80;;;12.17;;
38399;SDS011;24180;42.676;23.320;2022-12-18T06:27:40;17.03;;;10.37;;
38399;SDS011;24180;42.676;23.320;2022-12-18T06:30:05;17.97;;;12.63;;
38399;SDS011;24180;42.676;23.320;2022-12-18T06:32:32;16.17;;;11.33;;
38399;SDS011;24180;42.676;23.320;2022-12-18T06:34:57;15.33;;;9.63;;
38399;SDS011;24180;42.676;23.320;2022-12-18T06:37:22;14.60;;;9.07;;
38399;SDS011;24180;42.676;23.320;2022-12-18T06:39:51;17.60;;;12.70;;
38399;SDS011;24180;42.676;23.320;2022-12-18T06:42:16;17.17;;;11.40;;
38399;SDS011;24180;42.676;23.320;2022-12-18T06:44:42;17.07;;;11.93;;
38399;SDS011;24180;42.676;23.320;2022-12-18T06:47:07;14.63;;;10.30;;
38399;SDS011;24180;42.676;23.320;2022-12-18T06:49:33;17.47;;;12.07;;
38399;SDS011;24180;42.676;23.320;2022-12-18T06:51:58;15.60;;;10.37;;
38399;SDS011;24180;42.676;23.320;2022-12-18T06:54:24;13.37;;;9.37;;
38399;SDS011;24180;42.676;23.320;2022-12-18T06:56:49;18.20;;;11.73;;
38399;SDS011;24180;42.676;23.320;2022-12-18T06:59:14;10.90;;;8.00;;
38399;SDS011;24180;42.676;23.320;2022-12-18T07:01:40;13.23;;;6.87;;
38399;SDS011;24180;42.676;23.320;2022-12-18T07:04:07;17.17;;;11.63;;
38399;SDS011;24180;42.676;23.320;2022-12-18T07:06:32;10.63;;;8.33;;
38399;SDS011;24180;42.676;23.320;2022-12-18T07:08:58;17.57;;;12.50;;
38399;SDS011;24180;42.676;23.320;2022-12-18T07:11:24;11.97;;;8.87;;
38399;SDS011;24180;42.676;23.320;2022-12-18T07:13:49;12.10;;;8.73;;
38399;SDS011;24180;42.676;23.320;2022-12-18T07:16:16;15.50;;;11.17;;
38399;SDS011;24180;42.676;23.320;2022-12-18T07:18:43;15.83;;;11.90;;
38399;SDS011;24180;42.676;23.320;2022-12-18T07:21:11;19.13;;;12.33;;
38399;SDS011;24180;42.676;23.320;2022-12-18T07:23:39;15.47;;;11.53;;
38399;SDS011;24180;42.676;23.320;2022-12-18T07:26:06;21.23;;;11.37;;
38399;SDS011;24180;42.676;23.320;2022-12-18T07:28:34;19.83;;;12.27;;
38399;SDS011;24180;42.676;23.320;2022-12-18T07:31:08;12.47;;;8.87;;
38399;SDS011;24180;42.676;23.320;2022-12-18T07:33:34;20.47;;;13.37;;
38399;SDS011;24180;42.676;23.320;2022-12-18T07:36:01;22.53;;;14.67;;
38399;SDS011;24180;42.676;23.320;2022-12-18T07:38:28;21.13;;;14.50;;
38399;SDS011;24180;42.676;23.320;2022-12-18T07:40:54;19.93;;;12.73;;
38399;SDS011;24180;42.676;23.320;2022-12-18T07:43:24;21.23;;;15.07;;
38399;SDS011;24180;42.676;23.320;2022-12-18T07:45:50;19.10;;;12.83;;
38399;SDS011;24180;42.676;23.320;2022-12-18T07:48:15;21.00;;;14.47;;
38399;SDS011;24180;42.676;23.320;2022-12-18T07:50:41;15.50;;;11.27;;
38399;SDS011;24180;42.676;23.320;2022-12-18T07:53:06;20.23;;;12.63;;
38399;SDS011;24180;42.676;23.320;2022-12-18T07:55:31;21.33;;;12.57;;
38399;SDS011;24180;42.676;23.320;2022-12-18T07:58:00;25.33;;;15.90;;
38399;SDS011;24180;42.676;23.320;2022-12-18T08:00:26;20.13;;;13.63;;
38399;SDS011;24180;42.676;23.320;2022-12-18T08:02:51;14.97;;;9.93;;
38399;SDS011;24180;42.676;23.320;2022-12-18T08:05:16;14.00;;;8.20;;
38399;SDS011;24180;42.676;23.320;2022-12-18T08:07:42;22.43;;;15.43;;
38399;SDS011;24180;42.676;23.320;2022-12-18T08:10:07;18.47;;;11.63;;
38399;SDS011;24180;42.676;23.320;2022-12-18T08:12:33;22.60;;;14.13;;
38399;SDS011;24180;42.676;23.320;2022-12-18T08:14:59;27.03;;;17.30;;
38399;SDS011;24180;42.676;23.320;2022-12-18T08:17:24;16.27;;;11.57;;
38399;SDS011;24180;42.676;23.320;2022-12-18T08:19:49;28.87;;;16.10;;
38399;SDS011;24180;42.676;23.320;2022-12-18T08:22:15;21.83;;;14.10;;
38399;SDS011;24180;42.676;23.320;2022-12-18T08:24:40;24.97;;;15.87;;
38399;SDS011;24180;42.676;23.320;2022-12-18T08:27:06;19.43;;;13.87;;
38399;SDS011;24180;42.676;23.320;2022-12-18T08:29:31;20.63;;;14.77;;
38399;SDS011;24180;42.676;23.320;2022-12-18T08:31:57;21.90;;;14.53;;
38399;SDS011;24180;42.676;23.320;2022-12-18T08:34:22;24.90;;;15.73;;
38399;SDS011;24180;42.676;23.320;2022-12-18T08:36:48;25.97;;;17.37;;
38399;SDS011;24180;42.676;23.320;2022-12-18T08:39:13;17.27;;;11.30;;
38399;SDS011;24180;42.676;23.320;2022-12-18T08:41:39;20.90;;;13.43;;
38399;SDS011;24180;42.676;23.320;2022-12-18T08:44:04;23.67;;;14.13;;
38399;SDS011;24180;42.676;23.320;2022-12-18T08:46:48;22.17;;;14.00;;
38399;SDS011;24180;42.676;23.320;2022-12-18T08:49:13;14.17;;;9.20;;
38399;SDS011;24180;42.676;23.320;2022-12-18T08:51:39;19.13;;;10.97;;
38399;SDS011;24180;42.676;23.320;2022-12-18T08:54:05;16.20;;;10.60;;
38399;SDS011;24180;42.676;23.320;2022-12-18T08:56:31;21.00;;;14.17;;
38399;SDS011;24180;42.676;23.320;2022-12-18T08:58:58;17.50;;;10.30;;
38399;SDS011;24180;42.676;23.320;2022-12-18T09:01:23;16.80;;;10.57;;
38399;SDS011;24180;42.676;23.320;2022-12-18T09:03:49;23.43;;;13.93;;
38399;SDS011;24180;42.676;23.320;2022-12-18T09:06:16;15.40;;;8.97;;
38399;SDS011;24180;42.676;23.320;2022-12-18T09:08:43;20.63;;;13.27;;
38399;SDS011;24180;42.676;23.320;2022-12-18T09:11:15;21.83;;;15.23;;
38399;SDS011;24180;42.676;23.320;2022-12-18T09:13:45;19.97;;;12.23;;
38399;SDS011;24180;42.676;23.320;2022-12-18T09:16:11;25.03;;;15.53;;
38399;SDS011;24180;42.676;23.320;2022-12-18T09:18:36;23.40;;;14.80;;
38399;SDS011;24180;42.676;23.320;2022-12-18T09:21:09;16.10;;;9.53;;
38399;SDS011;24180;42.676;23.320;2022-12-18T09:23:36;19.83;;;12.93;;
38399;SDS011;24180;42.676;23.320;2022-12-18T09:26:01;22.10;;;13.47;;
38399;SDS011;24180;42.676;23.320;2022-12-18T09:28:26;20.13;;;13.43;;
38399;SDS011;24180;42.676;23.320;2022-12-18T09:30:52;24.33;;;13.70;;
38399;SDS011;24180;42.676;23.320;2022-12-18T09:33:17;21.27;;;12.23;;
38399;SDS011;24180;42.676;23.320;2022-12-18T09:35:43;11.23;;;7.97;;
38399;SDS011;24180;42.676;23.320;2022-12-18T09:38:15;16.43;;;12.23;;
38399;SDS011;24180;42.676;23.320;2022-12-18T09:40:44;19.17;;;13.47;;
38399;SDS011;24180;42.676;23.320;2022-12-18T09:43:14;19.30;;;13.60;;
38399;SDS011;24180;42.676;23.320;2022-12-18T09:45:44;22.00;;;15.00;;
38399;SDS011;24180;42.676;23.320;2022-12-18T09:48:21;17.07;;;12.00;;
38399;SDS011;24180;42.676;23.320;2022-12-18T09:50:51;16.77;;;11.87;;
38399;SDS011;24180;42.676;23.320;2022-12-18T09:53:22;15.57;;;10.87;;
38399;SDS011;24180;42.676;23.320;2022-12-18T09:55:51;18.67;;;13.23;;
38399;SDS011;24180;42.676;23.320;2022-12-18T10:00:57;19.83;;;14.47;;
38399;SDS011;24180;42.676;23.320;2022-12-18T10:03:22;20.77;;;14.57;;
38399;SDS011;24180;42.676;23.320;2022-12-18T10:06:31;20.00;;;12.77;;
38399;SDS011;24180;42.676;23.320;2022-12-18T10:22:36;11.60;;;8.37;;
38399;SDS011;24180;42.676;23.320;2022-12-18T10:27:44;19.23;;;12.50;;
38399;SDS011;24180;42.676;23.320;2022-12-18T10:30:14;19.60;;;13.07;;
38399;SDS011;24180;42.676;23.320;2022-12-18T10:32:41;19.27;;;13.20;;
38399;SDS011;24180;42.676;23.320;2022-12-18T10:35:07;17.47;;;12.30;;
38399;SDS011;24180;42.676;23.320;2022-12-18T10:37:58;11.43;;;8.03;;
38399;SDS011;24180;42.676;23.320;2022-12-18T10:40:32;18.30;;;13.20;;
38399;SDS011;24180;42.676;23.320;2022-12-18T10:43:12;15.30;;;10.57;;
38399;SDS011;24180;42.676;23.320;2022-12-18T10:45:40;21.07;;;13.50;;
38399;SDS011;24180;42.676;23.320;2022-12-18T10:48:19;18.30;;;12.77;;
38399;SDS011;24180;42.676;23.320;2022-12-18T10:50:47;17.00;;;8.93;;
38399;SDS011;24180;42.676;23.320;2022-12-18T10:53:22;16.80;;;11.40;;
38399;SDS011;24180;42.676;23.320;2022-12-18T10:55:50;20.40;;;13.20;;
38399;SDS011;24180;42.676;23.320;2022-12-18T11:01:09;18.67;;;12.20;;
38399;SDS011;24180;42.676;23.320;2022-12-18T11:03:37;19.77;;;13.50;;
38399;SDS011;24180;42.676;23.320;2022-12-18T11:06:04;13.37;;;8.73;;
38399;SDS011;24180;42.676;23.320;2022-12-18T11:08:31;17.03;;;12.43;;
38399;SDS011;24180;42.676;23.320;2022-12-18T11:10:57;16.27;;;9.13;;
38399;SDS011;24180;42.676;23.320;2022-12-18T11:13:24;15.73;;;11.33;;
38399;SDS011;24180;42.676;23.320;2022-12-18T11:15:51;16.73;;;11.47;;
38399;SDS011;24180;42.676;23.320;2022-12-18T11:18:18;20.33;;;13.40;;
38399;SDS011;24180;42.676;23.320;2022-12-18T11:21:06;12.33;;;8.33;;
38399;SDS011;24180;42.676;23.320;2022-12-18T11:23:33;17.97;;;12.70;;
38399;SDS011;24180;42.676;23.320;2022-12-18T11:26:03;15.17;;;9.77;;
38399;SDS011;24180;42.676;23.320;2022-12-18T11:34:01;18.83;;;12.43;;
38399;SDS011;24180;42.676;23.320;2022-12-18T11:36:42;14.47;;;9.97;;
38399;SDS011;24180;42.676;23.320;2022-12-18T11:39:12;17.97;;;11.97;;
38399;SDS011;24180;42.676;23.320;2022-12-18T11:41:41;21.57;;;12.60;;
38399;SDS011;24180;42.676;23.320;2022-12-18T11:50:10;13.50;;;9.30;;
38399;SDS011;24180;42.676;23.320;2022-12-18T11:52:40;16.50;;;10.40;;
38399;SDS011;24180;42.676;23.320;2022-12-18T11:55:13;15.77;;;10.20;;
38399;SDS011;24180;42.676;23.320;2022-12-18T12:00:33;21.03;;;13.37;;
38399;SDS011;24180;42.676;23.320;2022-12-18T12:06:03;13.37;;;8.87;;
38399;SDS011;24180;42.676;23.320;2022-12-18T12:08:46;24.87;;;14.03;;
38399;SDS011;24180;42.676;23.320;2022-12-18T12:19:38;15.07;;;8.70;;
38399;SDS011;24180;42.676;23.320;2022-12-18T12:38:28;17.60;;;13.07;;
38399;SDS011;24180;42.676;23.320;2022-12-18T12:41:06;21.30;;;13.47;;
38399;SDS011;24180;42.676;23.320;2022-12-18T12:43:57;20.47;;;14.00;;
38399;SDS011;24180;42.676;23.320;2022-12-18T12:46:25;17.97;;;13.40;;
38399;SDS011;24180;42.676;23.320;2022-12-18T12:49:04;16.53;;;11.37;;
38399;SDS011;24180;42.676;23.320;2022-12-18T12:51:35;18.40;;;11.63;;
38399;SDS011;24180;42.676;23.320;2022-12-18T12:54:15;14.50;;;10.53;;
38399;SDS011;24180;42.676;23.320;2022-12-18T12:56:49;21.17;;;13.60;;
38399;SDS011;24180;42.676;23.320;2022-12-18T12:59:37;21.60;;;14.63;;
38399;SDS011;24180;42.676;23.320;2022-12-18T13:07:41;17.43;;;11.70;;
38399;SDS011;24180;42.676;23.320;2022-12-18T13:13:06;20.23;;;13.80;;
38399;SDS011;24180;42.676;23.320;2022-12-18T13:20:32;21.30;;;13.77;;
38399;SDS011;24180;42.676;23.320;2022-12-18T13:23:00;16.03;;;11.13;;
38399;SDS011;24180;42.676;23.320;2022-12-18T13:25:35;21.93;;;14.83;;
38399;SDS011;24180;42.676;23.320;2022-12-18T13:30:41;21.60;;;14.27;;
38399;SDS011;24180;42.676;23.320;2022-12-18T13:35:42;23.33;;;14.43;;
38399;SDS011;24180;42.676;23.320;2022-12-18T13:38:22;22.40;;;14.70;;
38399;SDS011;24180;42.676;23.320;2022-12-18T13:46:05;24.87;;;14.53;;
38399;SDS011;24180;42.676;23.320;2022-12-18T13:49:05;21.03;;;14.47;;
38399;SDS011;24180;42.676;23.320;2022-12-18T13:51:49;22.13;;;14.20;;
38399;SDS011;24180;42.676;23.320;2022-12-18T13:54:30;24.87;;;16.97;;
38399;SDS011;24180;42.676;23.320;2022-12-18T13:57:00;19.33;;;12.93;;
38399;SDS011;24180;42.676;23.320;2022-12-18T14:02:00;22.47;;;15.07;;
38399;SDS011;24180;42.676;23.320;2022-12-18T14:04:31;22.50;;;14.37;;
38399;SDS011;24180;42.676;23.320;2022-12-18T14:07:01;22.67;;;15.57;;
38399;SDS011;24180;42.676;23.320;2022-12-18T14:09:50;16.40;;;10.13;;
38399;SDS011;24180;42.676;23.320;2022-12-18T14:12:35;21.37;;;13.00;;
38399;SDS011;24180;42.676;23.320;2022-12-18T14:17:55;18.63;;;12.40;;
38399;SDS011;24180;42.676;23.320;2022-12-18T14:20:25;19.07;;;12.33;;
38399;SDS011;24180;42.676;23.320;2022-12-18T14:22:52;18.07;;;11.83;;
38399;SDS011;24180;42.676;23.320;2022-12-18T14:25:19;22.50;;;13.23;;
38399;SDS011;24180;42.676;23.320;2022-12-18T14:27:51;22.70;;;14.43;;
38399;SDS011;24180;42.676;23.320;2022-12-18T14:30:42;23.53;;;15.83;;
38399;SDS011;24180;42.676;23.320;2022-12-18T14:35:42;19.37;;;12.60;;
38399;SDS011;24180;42.676;23.320;2022-12-18T14:40:55;16.47;;;11.63;;
38399;SDS011;24180;42.676;23.320;2022-12-18T14:43:29;18.20;;;11.43;;
38399;SDS011;24180;42.676;23.320;2022-12-18T14:45:57;19.10;;;12.90;;
38399;SDS011;24180;42.676;23.320;2022-12-18T14:48:36;17.27;;;10.93;;
38399;SDS011;24180;42.676;23.320;2022-12-18T14:53:32;17.90;;;9.57;;
38399;SDS011;24180;42.676;23.320;2022-12-18T14:56:03;16.63;;;10.80;;
38399;SDS011;24180;42.676;23.320;2022-12-18T14:58:56;22.10;;;14.93;;
38399;SDS011;24180;42.676;23.320;2022-12-18T15:01:31;12.90;;;8.80;;
38399;SDS011;24180;42.676;23.320;2022-12-18T15:04:00;15.83;;;11.07;;
38399;SDS011;24180;42.676;23.320;2022-12-18T15:06:32;17.60;;;11.07;;
38399;SDS011;24180;42.676;23.320;2022-12-18T15:09:05;17.37;;;12.37;;
38399;SDS011;24180;42.676;23.320;2022-12-18T15:11:47;14.20;;;10.43;;
38399;SDS011;24180;42.676;23.320;2022-12-18T15:17:15;17.23;;;11.27;;
38399;SDS011;24180;42.676;23.320;2022-12-18T15:19:44;20.17;;;12.10;;
38399;SDS011;24180;42.676;23.320;2022-12-18T15:22:30;18.97;;;13.33;;
38399;SDS011;24180;42.676;23.320;2022-12-18T15:25:00;14.77;;;10.13;;
38399;SDS011;24180;42.676;23.320;2022-12-18T15:27:31;17.10;;;12.57;;
38399;SDS011;24180;42.676;23.320;2022-12-18T15:30:15;16.83;;;11.30;;
38399;SDS011;24180;42.676;23.320;2022-12-18T15:32:43;17.10;;;11.43;;
38399;SDS011;24180;42.676;23.320;2022-12-18T15:35:17;21.83;;;12.53;;
38399;SDS011;24180;42.676;23.320;2022-12-18T15:37:50;15.07;;;11.00;;
38399;SDS011;24180;42.676;23.320;2022-12-18T15:40:25;16.17;;;10.87;;
38399;SDS011;24180;42.676;23.320;2022-12-18T15:42:52;17.73;;;12.37;;
38399;SDS011;24180;42.676;23.320;2022-12-18T15:45:42;17.33;;;10.70;;
38399;SDS011;24180;42.676;23.320;2022-12-18T15:48:17;12.70;;;8.63;;
38399;SDS011;24180;42.676;23.320;2022-12-18T15:50:45;21.30;;;12.17;;
38399;SDS011;24180;42.676;23.320;2022-12-18T15:53:10;12.27;;;7.67;;
38399;SDS011;24180;42.676;23.320;2022-12-18T15:55:36;15.23;;;9.27;;
38399;SDS011;24180;42.676;23.320;2022-12-18T15:58:21;15.77;;;9.73;;
38399;SDS011;24180;42.676;23.320;2022-12-18T16:00:46;13.80;;;9.37;;
38399;SDS011;24180;42.676;23.320;2022-12-18T16:03:12;18.63;;;11.97;;
38399;SDS011;24180;42.676;23.320;2022-12-18T16:05:37;18.83;;;12.77;;
38399;SDS011;24180;42.676;23.320;2022-12-18T16:08:03;19.23;;;11.40;;
38399;SDS011;24180;42.676;23.320;2022-12-18T16:10:28;21.80;;;13.97;;
38399;SDS011;24180;42.676;23.320;2022-12-18T16:12:54;19.60;;;12.53;;
38399;SDS011;24180;42.676;23.320;2022-12-18T16:15:19;20.57;;;12.70;;
38399;SDS011;24180;42.676;23.320;2022-12-18T16:17:45;18.77;;;12.57;;
38399;SDS011;24180;42.676;23.320;2022-12-18T16:20:13;22.10;;;12.47;;
38399;SDS011;24180;42.676;23.320;2022-12-18T16:22:43;21.50;;;14.60;;
38399;SDS011;24180;42.676;23.320;2022-12-18T16:25:25;22.63;;;13.77;;
38399;SDS011;24180;42.676;23.320;2022-12-18T16:27:52;19.90;;;12.47;;
38399;SDS011;24180;42.676;23.320;2022-12-18T16:30:23;21.60;;;14.53;;
38399;SDS011;24180;42.676;23.320;2022-12-18T16:32:52;23.17;;;14.20;;
38399;SDS011;24180;42.676;23.320;2022-12-18T16:35:18;23.10;;;14.37;;
38399;SDS011;24180;42.676;23.320;2022-12-18T16:37:44;19.83;;;11.77;;
38399;SDS011;24180;42.676;23.320;2022-12-18T16:40:10;22.20;;;13.93;;
38399;SDS011;24180;42.676;23.320;2022-12-18T16:42:38;17.97;;;11.17;;